Latest Weather Observations for Warragul (Nilma North)

IDV60801

Issued at 2:31 pm EST Tuesday 3 May 2016 (issued every 30 minutes, with the page automatically refreshed every 10 minutes)

About weather observations | Map of weather stations | Latest weather observations for VIC | Other Formats
Station Details ID: 085313 Name: NILMA NORTH (WARRAGUL) Lat: -38.13 Lon: 145.99 Height: 134.11 m
Data from the previous 72 hours. | See also: Recent months for locations in Victoria
Date/Time
EST
Temp
°C
App
Temp
°C
Dew
Point
Rel
Hum
%
Delta-T
°C
Wind Press
QNH
hPa
Press
MSL
hPa
Rain
since 9 am
mm
Dir
 
Spd
km/h
Gust
km/h
Spd
kts
Gust
kts
03/02:30pm 18.5 12.7 9.3 55 4.9 NW 30 57 16 31 997.5 997.5 0.0
03/02:00pm 18.8 12.2 7.9 49 5.7 NW 32 50 17 27 997.3 997.3 0.0
03/01:30pm 19.1 12.4 7.5 47 5.9 NNW 32 61 17 33 997.2 997.2 0.0
03/01:00pm 19.9 12.6 7.3 44 6.5 NNW 35 57 19 31 997.5 997.5 0.0
03/12:30pm 19.6 13.3 7.4 45 6.3 NNW 30 52 16 28 998.0 998.0 0.0
03/12:00pm 19.7 13.4 7.4 45 6.4 NW 30 56 16 30 998.4 998.4 0.0
03/11:30am 19.4 12.7 7.2 45 6.2 NW 32 61 17 33 999.0 999.0 0.0
03/11:00am 19.2 12.4 6.7 44 6.3 NW 32 54 17 29 999.5 999.5 0.0
03/10:32am 18.9 12.7 6.1 43 6.4 NW 28 61 15 33 999.5 999.5 0.0
03/10:30am 18.9 13.6 7.0 46 6.0 NW 24 50 13 27 999.5 999.5 0.0
03/10:00am 18.3 11.5 7.1 48 5.7 NW 32 61 17 33 1000.0 1000.0 0.0
03/09:35am 18.1 12.1 6.9 48 5.6 NW 28 54 15 29 1000.1 1000.1 0.0
03/09:30am 18.1 13.2 6.9 48 5.6 NW 22 48 12 26 1000.3 1000.3 0.0
03/09:01am 17.7 11.6 6.6 48 5.5 NW 28 56 15 30 1000.4 1000.4 0.0
03/09:00am 17.7 12.0 6.6 48 5.6 NW 26 50 14 27 1000.4 1000.4 0.0
03/08:30am 17.1 12.2 6.9 51 5.1 NW 22 43 12 23 1001.5 1001.5 0.0
03/08:00am 16.7 10.3 6.8 52 4.9 NW 30 61 16 33 1001.7 1001.7 0.0
03/07:55am 16.9 10.8 6.4 50 5.2 NW 28 61 15 33 1001.5 1001.5 0.0
03/07:30am 15.9 11.8 6.3 53 4.7 NW 17 30 9 16 1002.0 1002.0 0.0
03/07:00am 15.6 10.9 6.1 53 4.6 NW 20 39 11 21 1002.1 1002.1 0.0
03/06:30am 15.1 11.3 5.9 54 4.4 NW 15 26 8 14 1002.5 1002.5 0.0
03/06:00am 15.0 10.8 5.8 54 4.5 NW 17 32 9 17 1002.6 1002.6 0.0
03/05:30am 15.4 10.6 5.6 52 4.7 NNW 20 37 11 20 1002.6 1002.6 0.0
03/05:00am 15.4 11.2 5.6 52 4.7 NNW 17 33 9 18 1002.8 1002.8 0.0
03/04:30am 16.0 10.4 5.6 50 5.0 NW 24 46 13 25 1003.2 1003.2 0.0
03/04:00am 15.9 11.3 5.5 50 5.0 NW 19 33 10 18 1003.7 1003.7 0.0
03/03:30am 15.8 11.2 5.4 50 5.0 NW 19 33 10 18 1004.0 1004.0 0.0
03/03:00am 15.3 10.4 5.0 50 4.9 NW 20 41 11 22 1004.1 1004.2 0.0
03/02:30am 15.6 10.7 4.9 49 5.1 NW 20 44 11 24 1004.3 1004.4 0.0
03/02:00am 15.6 8.7 4.6 48 5.2 NNW 30 50 16 27 1004.6 1004.7 0.0
03/01:52am 15.9 9.1 4.9 48 5.2 NW 30 50 16 27 1004.6 1004.7 0.0
03/01:30am 15.3 10.6 5.0 50 4.9 NW 19 35 10 19 1005.0 1005.1 0.0
03/01:00am 15.4 9.3 4.8 49 5.0 NW 26 43 14 23 1005.4 1005.5 0.0
03/12:30am 14.6 10.2 4.6 51 4.7 NW 17 30 9 16 1005.8 1005.8 0.0
03/12:00am 14.0 10.7 4.6 53 4.4 NW 11 24 6 13 1006.4 1006.4 0.0
 
Date/Time
EST
Temp
°C
App
Temp
°C
Dew
Point
Rel
Hum
%
Delta-T
°C
Wind Press
QNH
hPa
Press
MSL
hPa
Rain
since 9 am
mm
Dir
 
Spd
km/h
Gust
km/h
Spd
kts
Gust
kts
02/11:30pm 14.4 9.6 4.4 51 4.7 NNW 19 35 10 19 1006.7 1006.7 0.0
02/11:00pm 14.3 9.9 4.6 52 4.5 NNW 17 33 9 18 1007.0 1007.0 0.0
02/10:30pm 14.2 9.2 4.8 53 4.4 NW 20 33 11 18 1007.4 1007.4 0.0
02/10:00pm 14.3 9.4 4.9 53 4.4 NNW 20 37 11 20 1007.2 1007.2 0.0
02/09:30pm 14.0 9.6 4.9 54 4.3 NNW 17 30 9 16 1007.6 1007.6 0.0
02/09:00pm 14.0 9.3 5.1 55 4.2 NW 19 33 10 18 1007.9 1007.9 0.0
02/08:30pm 14.2 9.3 5.0 54 4.3 NNW 20 33 11 18 1008.0 1008.0 0.0
02/08:00pm 13.9 8.6 5.0 55 4.2 NNW 22 41 12 22 1008.4 1008.4 0.0
02/07:30pm 13.9 9.0 5.3 56 4.1 NNW 20 37 11 20 1008.4 1008.4 0.0
02/07:00pm 13.6 9.2 5.0 56 4.0 NNW 17 32 9 17 1008.9 1008.9 0.0
02/06:30pm 13.5 9.5 4.9 56 4.0 NNW 15 26 8 14 1009.0 1009.0 0.0
02/06:00pm 13.2 10.0 5.1 58 3.8 NNW 11 22 6 12 1009.1 1009.1 0.0
02/05:30pm 13.5 10.0 5.4 58 3.8 NW 13 24 7 13 1009.1 1009.1 0.0
02/05:00pm 14.0 10.5 5.6 57 4.0 NW 13 20 7 11 1009.3 1009.3 0.0
02/04:30pm 14.5 10.3 5.6 55 4.2 NNW 17 30 9 16 1009.3 1009.3 0.0
02/04:00pm 15.4 10.9 5.9 53 4.6 NW 19 33 10 18 1009.4 1009.4 0.0
02/03:30pm 15.4 9.5 5.6 52 4.7 NNW 26 39 14 21 1009.2 1009.2 0.0
02/03:00pm 16.3 12.6 6.2 51 5.0 NW 15 26 8 14 1009.3 1009.3 0.0
02/02:30pm 16.2 10.6 5.5 49 5.2 NW 24 43 13 23 1009.3 1009.3 0.0
02/02:00pm 15.8 8.9 4.5 47 5.3 NW 30 50 16 27 1009.4 1009.4 0.0
02/01:37pm 15.9 9.4 4.6 47 5.3 NW 28 48 15 26 1009.4 1009.4 0.0
02/01:30pm 16.1 10.1 5.1 48 5.3 NW 26 50 14 27 1009.6 1009.6 0.0
02/01:00pm 16.1 10.8 5.1 48 5.3 NW 22 41 12 22 1010.1 1010.1 0.0
02/12:30pm 15.5 10.1 4.6 48 5.1 NW 22 37 12 20 1010.7 1010.8 0.0
02/12:00pm 14.3 8.1 4.3 51 4.6 WNW 26 37 14 20 1011.4 1011.5 0.0
02/11:30am 15.1 9.3 4.2 48 5.1 WNW 24 46 13 25 1011.8 1011.9 0.0
02/11:05am 14.6 8.2 5.1 53 4.5 WNW 28 46 15 25 1012.0 1012.1 0.0
02/11:00am 14.5 8.8 4.8 52 4.6 WNW 24 41 13 22 1012.1 1012.2 0.0
02/10:30am 13.9 9.5 4.8 54 4.3 NW 17 32 9 17 1012.3 1012.4 0.0
02/10:00am 13.9 9.0 3.9 51 4.6 NW 19 33 10 18 1012.4 1012.5 0.0
02/09:30am 13.2 8.2 3.8 53 4.3 NW 19 33 10 18 1012.6 1012.7 0.0
02/09:00am 13.2 9.0 3.6 52 4.3 NW 15 28 8 15 1012.9 1013.0 5.6
02/08:30am 11.5 8.4 3.5 58 3.6 NNW 9 15 5 8 1013.0 1013.1 5.6
02/08:00am 10.9 7.8 3.7 61 3.2 NW 9 15 5 8 1012.9 1013.0 5.6
02/07:30am 9.5 6.7 3.3 65 2.7 NW 7 13 4 7 1012.7 1012.8 5.6
02/07:00am 8.9 6.1 3.1 67 2.5 NW 7 11 4 6 1012.7 1012.8 5.6
02/06:30am 9.0 6.2 3.4 68 2.4 NW 7 13 4 7 1012.7 1012.8 5.6
02/06:00am 8.6 6.1 3.6 71 2.2 NNW 6 11 3 6 1012.9 1013.0 5.6
02/05:30am 8.8 6.0 3.4 69 2.3 NW 7 11 4 6 1013.0 1013.1 5.6
02/05:00am 9.1 5.6 3.7 69 2.4 WNW 11 17 6 9 1012.9 1013.0 5.6
02/04:30am 9.0 5.6 3.8 70 2.3 WNW 11 19 6 10 1012.9 1013.0 5.6
02/04:00am 7.8 4.7 3.8 76 1.7 WNW 9 13 5 7 1012.8 1012.9 5.6
02/03:30am 7.3 4.8 3.7 78 1.5 NW 6 7 3 4 1013.1 1013.2 5.6
02/03:00am 7.4 4.8 4.0 79 1.5 NW 7 11 4 6 1013.2 1013.3 5.6
02/02:30am 7.9 5.2 3.9 76 1.7 NW 7 13 4 7 1013.4 1013.5 5.6
02/02:00am 8.6 5.3 4.4 75 1.9 WNW 11 19 6 10 1013.8 1013.8 5.6
02/01:30am 9.0 5.3 4.6 74 2.0 WNW 13 17 7 9 1013.9 1013.9 5.6
02/01:00am 9.1 5.4 4.7 74 2.0 WNW 13 22 7 12 1014.0 1014.0 5.6
02/12:30am 8.8 5.5 4.8 76 1.8 NW 11 19 6 10 1014.4 1014.4 5.6
02/12:00am 9.1 5.9 4.9 75 1.9 WNW 11 20 6 11 1014.6 1014.6 5.6
 
Date/Time
EST
Temp
°C
App
Temp
°C
Dew
Point
Rel
Hum
%
Delta-T
°C
Wind Press
QNH
hPa
Press
MSL
hPa
Rain
since 9 am
mm
Dir
 
Spd
km/h
Gust
km/h
Spd
kts
Gust
kts
01/11:30pm 9.1 5.5 4.9 75 1.9 WNW 13 22 7 12 1014.7 1014.7 5.6
01/11:00pm 9.1 5.5 5.1 76 1.8 WNW 13 19 7 10 1014.6 1014.6 5.6
01/10:30pm 9.1 5.6 5.3 77 1.7 WNW 13 26 7 14 1014.6 1014.6 5.6
01/10:00pm 9.5 5.3 5.7 77 1.7 WNW 17 30 9 16 1014.5 1014.5 5.6
01/09:30pm 9.3 5.2 6.0 80 1.5 WNW 17 26 9 14 1014.5 1014.5 5.6
01/09:00pm 9.4 5.7 6.3 81 1.4 NW 15 26 8 14 1014.3 1014.3 5.6
01/08:30pm 9.7 5.6 6.2 79 1.6 WNW 17 28 9 15 1014.0 1014.0 5.6
01/08:00pm 10.2 5.7 6.0 75 2.0 WNW 19 30 10 16 1013.7 1013.7 5.6
01/07:30pm 10.5 6.0 6.1 74 2.1 WNW 19 35 10 19 1013.2 1013.3 5.6
01/07:00pm 10.7 5.6 6.1 73 2.2 WNW 22 39 12 21 1012.7 1012.8 5.6
01/06:30pm 10.8 5.4 6.2 73 2.2 WNW 24 41 13 22 1012.6 1012.7 5.6
01/06:00pm 10.8 5.0 6.4 74 2.1 WNW 26 39 14 21 1012.2 1012.3 5.6
01/05:30pm 10.6 6.4 7.3 80 1.6 WNW 19 30 10 16 1011.8 1011.9 5.6
01/05:00pm 11.0 6.7 7.7 80 1.6 WNW 20 32 11 17 1011.2 1011.3 5.6
01/04:30pm 9.7 4.5 7.3 85 1.1 W 24 37 13 20 1011.1 1011.2 5.6
01/04:00pm 10.5 5.6 6.8 78 1.8 WSW 22 41 12 22 1010.6 1010.7 4.2
01/03:41pm 12.6 6.8 7.9 73 2.3 WNW 28 50 15 27 1009.7 1009.7 4.2
01/03:30pm 12.5 6.8 8.4 76 2.0 WNW 28 43 15 23 1009.6 1009.6 4.2
01/03:00pm 11.9 7.0 8.6 80 1.7 WNW 24 35 13 19 1009.3 1009.3 4.2
01/02:30pm 10.8 6.6 9.6 92 0.6 WNW 22 33 12 18 1009.1 1009.1 4.2
01/02:00pm 10.4 2.7 8.7 89 0.8 W 39 54 21 29 1008.8 1008.8 2.8
01/01:54pm 10.9 4.4 8.8 87 1.0 W 33 54 18 29 1008.6 1008.6 2.4
01/01:30pm 10.9 5.9 9.5 91 0.7 W 26 43 14 23 1008.0 1008.0 2.0
01/01:03pm 10.6 2.3 9.2 91 0.7 W 43 61 23 33 1008.0 1008.0 1.6
01/01:00pm 10.6 2.1 9.2 91 0.7 W 44 61 24 33 1007.9 1007.9 1.2
01/12:30pm 15.3 8.9 8.5 64 3.5 WNW 32 54 17 29 1006.7 1006.7 0.0
01/12:00pm 15.6 9.0 7.9 60 3.9 WNW 32 57 17 31 1006.3 1006.3 0.0
01/11:30am 15.9 9.1 7.7 58 4.1 WNW 33 61 18 33 1006.3 1006.3 0.0
01/11:00am 16.1 8.6 7.8 58 4.2 WNW 37 65 20 35 1006.2 1006.2 0.0
01/10:30am 15.5 7.8 7.3 58 4.1 WNW 37 56 20 30 1005.9 1005.9 0.0
01/10:00am 15.7 8.3 8.4 62 3.7 WNW 37 67 20 36 1005.3 1005.4 0.0
01/09:30am 15.7 9.0 8.2 61 3.8 WNW 33 57 18 31 1004.6 1004.5 0.0
01/09:00am 15.9 10.1 9.6 66 3.3 WNW 30 52 16 28 1004.1 1004.0 4.8
01/08:38am 15.9 10.3 8.6 62 3.7 WNW 28 52 15 28 1004.1 1004.0 4.8
01/08:30am 15.9 11.5 8.9 63 3.6 WNW 22 48 12 26 1004.2 1004.1 4.8
01/08:00am 15.8 10.2 8.8 63 3.6 NW 28 50 15 27 1003.8 1003.7 4.8
01/07:30am 15.2 11.1 8.7 65 3.3 NW 20 35 11 19 1003.3 1003.2 4.8
01/07:00am 15.6 12.1 8.8 64 3.5 NW 17 39 9 21 1003.1 1003.0 4.8
01/06:30am 14.7 12.6 9.7 72 2.6 NW 11 22 6 12 1003.4 1003.3 4.8
01/06:00am 14.7 13.3 10.9 78 2.0 NNW 9 17 5 9 1003.3 1003.2 4.6
01/05:30am 14.1 13.0 11.8 86 1.2 NW 9 13 5 7 1003.7 1003.6 4.6
01/05:00am 14.8 13.3 11.8 82 1.6 N 11 20 6 11 1003.7 1003.6 4.6
01/04:30am 14.7 10.8 12.2 85 1.4 NW 24 39 13 21 1004.6 1004.5 3.8
01/04:02am 17.2 14.7 12.3 73 2.7 NNW 17 69 9 37 1004.3 1004.2 0.8
01/04:00am 18.7 17.6 13.1 70 3.2 NNW 11 24 6 13 1003.7 1003.6 0.2
01/03:30am 18.9 18.3 11.7 63 4.0 NNE 6 7 3 4 1001.9 1001.7 0.0
01/03:00am 19.8 17.5 11.8 60 4.5 NNE 15 24 8 13 1002.9 1002.8 0.0
01/02:30am 19.6 18.1 11.9 61 4.3 N 11 19 6 10 1004.0 1003.9 0.0
01/02:00am 19.3 18.1 11.6 61 4.3 N 9 15 5 8 1004.9 1004.8 0.0
01/01:30am 17.8 17.8 11.1 65 3.6 ENE 2 4 1 2 1005.5 1005.4 0.0
01/01:00am 19.2 18.5 11.5 61 4.3 N 6 9 3 5 1006.2 1006.0 0.0
01/12:30am 19.2 18.3 11.5 61 4.3 N 7 15 4 8 1006.7 1006.5 0.0
01/12:00am 19.5 18.4 11.8 61 4.3 N 9 19 5 10 1007.5 1007.3 0.0
 
Date/Time
EST
Temp
°C
App
Temp
°C
Dew
Point
Rel
Hum
%
Delta-T
°C
Wind Press
QNH
hPa
Press
MSL
hPa
Rain
since 9 am
mm
Dir
 
Spd
km/h
Gust
km/h
Spd
kts
Gust
kts
30/11:30pm 20.0 17.3 11.8 59 4.6 N 17 30 9 16 1008.2 1008.0 0.0
30/11:00pm 19.5 18.1 12.3 63 4.1 N 11 24 6 13 1008.6 1008.5 0.0
30/10:56pm 19.7 18.8 12.5 63 4.1 N 9 24 5 13 1008.7 1008.6 0.0
30/10:30pm 14.6 14.2 11.0 79 1.9 ESE 4 7 2 4 1009.6 1009.5 0.0
30/10:00pm 16.4 16.4 11.3 72 2.8 NNW 2 6 1 3 1010.4 1010.3 0.0
30/09:30pm 15.5 14.8 11.5 77 2.2 NNE 6 7 3 4 1010.6 1010.5 0.0
30/09:00pm 16.5 16.5 12.5 77 2.2 NE 4 6 2 3 1010.7 1010.6 0.0
30/08:30pm 16.6 16.5 12.0 74 2.5 N 4 4 2 2 1010.9 1010.8 0.0
30/08:00pm 15.8 16.0 12.0 78 2.1 NE 2 6 1 3 1010.9 1010.8 0.0
30/07:30pm 16.0 16.4 12.6 80 1.9 ENE 2 4 1 2 1010.9 1010.8 0.0
30/07:00pm 16.4 17.1 12.2 76 2.3 CALM 0 0 0 0 1010.9 1010.8 0.0
30/06:30pm 17.9 18.3 12.4 70 3.1 NNE 2 6 1 3 1010.7 1010.6 0.0
30/06:00pm 19.6 19.7 12.6 64 4.0 NE 4 4 2 2 1010.6 1010.5 0.0
30/05:30pm 20.6 20.1 12.6 60 4.5 NW 7 9 4 5 1010.8 1010.7 0.0
30/05:00pm 21.6 20.3 12.5 56 5.2 NNW 11 20 6 11 1011.0 1010.9 0.0
30/04:30pm 22.6 22.3 13.4 56 5.3 NW 7 13 4 7 1011.2 1011.1 0.0
30/04:00pm 23.6 23.0 13.5 53 5.9 NW 9 17 5 9 1011.2 1011.1 0.0
30/03:30pm 23.7 23.7 14.1 55 5.7 NW 7 17 4 9 1011.3 1011.2 0.0
30/03:00pm 23.9 22.6 13.7 53 6.0 NW 13 22 7 12 1011.5 1011.4 0.0

Other Formats:

Comma delimited format used in spreadsheet applications
http://www.bom.gov.au/fwo/IDV60801/IDV60801.99806.axf

JavaScript Object Notation format (JSON) in row-major order
http://www.bom.gov.au/fwo/IDV60801/IDV60801.99806.json